Time;durP1;ratioP1;P1;durP2;ratioP2;P2;SDS_P1;SDS_P2;PMS_P1;PMS_P2;Temp;Humidity;BMP_temperature;BMP_pressure;BME280_temperature;BME280_humidity;BME280_pressure;Samples;Min_cycle;Max_cycle;Signal;HPM_P1;HPM_P2
2023/08/24 00:01:42;;;;;;;4.03;2.50;;;23.20;86.30;;;;;;10359907;28;20990;-64
2023/08/24 00:06:43;;;;;;;3.42;2.42;;;23.20;86.20;;;;;;10364543;28;20450;-65
2023/08/24 00:11:43;;;;;;;3.50;2.70;;;23.20;86.30;;;;;;10362645;28;20449;-65
2023/08/24 00:16:44;;;;;;;3.40;2.47;;;23.10;86.20;;;;;;10359724;28;20483;-65
2023/08/24 00:21:45;;;;;;;2.95;2.53;;;23.10;86.20;;;;;;10358950;28;20819;-64
2023/08/24 00:26:45;;;;;;;3.93;2.50;;;23.10;86.10;;;;;;10359939;28;20408;-65
2023/08/24 00:31:46;;;;;;;3.42;2.40;;;23.10;86.10;;;;;;10361642;28;20404;-66
2023/08/24 00:36:47;;;;;;;3.60;2.60;;;23.00;86.00;;;;;;10358960;28;20492;-64
2023/08/24 00:41:47;;;;;;;3.47;2.50;;;23.00;86.10;;;;;;10362954;28;20435;-65
2023/08/24 00:46:48;;;;;;;3.03;2.57;;;23.00;86.10;;;;;;10358658;28;20863;-65
2023/08/24 00:51:49;;;;;;;3.03;2.40;;;22.90;86.10;;;;;;10359703;28;20452;-66
2023/08/24 00:56:49;;;;;;;3.50;2.57;;;22.90;86.00;;;;;;10355575;28;21178;-65
2023/08/24 01:01:51;;;;;;;4.67;2.40;;;22.90;86.10;;;;;;10361419;28;20434;-65
2023/08/24 01:06:52;;;;;;;2.90;2.60;;;22.90;86.20;;;;;;10358342;28;20404;-65
2023/08/24 01:12:12;;;;;;;3.37;2.40;;;22.80;86.20;;;;;;10356031;28;20408;-65
2023/08/24 01:17:16;;;;;;;3.80;2.60;;;22.80;86.30;;;;;;10342375;28;20483;-65
2023/08/24 01:22:44;;;;;;;3.20;2.28;;;22.80;86.40;;;;;;10358624;28;20408;-66
2023/08/24 01:27:47;;;;;;;3.20;2.33;;;22.70;86.40;;;;;;10359027;28;20400;-66
2023/08/24 01:32:49;;;;;;;3.13;2.35;;;22.70;86.40;;;;;;10352506;28;20427;-64
2023/08/24 01:37:49;;;;;;;3.80;2.67;;;22.70;86.50;;;;;;10358190;28;20396;-65
2023/08/24 01:43:05;;;;;;;3.93;2.70;;;22.70;86.60;;;;;;10358909;28;20432;-65
2023/08/24 01:48:06;;;;;;;3.58;2.55;;;22.70;86.60;;;;;;10357841;28;20427;-65
2023/08/24 01:53:07;;;;;;;4.20;2.70;;;22.70;86.60;;;;;;10361633;28;20447;-65
2023/08/24 01:58:08;;;;;;;3.40;2.67;;;22.70;86.70;;;;;;10368136;28;20415;-66
2023/08/24 02:03:09;;;;;;;3.13;2.70;;;22.60;86.80;;;;;;10364884;28;20811;-65
2023/08/24 02:08:09;;;;;;;2.90;2.55;;;22.60;86.80;;;;;;10365200;28;20400;-66
2023/08/24 02:13:10;;;;;;;3.42;2.50;;;22.60;87.00;;;;;;10365848;28;20519;-65
2023/08/24 02:18:10;;;;;;;4.37;2.60;;;22.60;87.00;;;;;;10366370;28;20478;-63
2023/08/24 02:23:11;;;;;;;4.07;2.70;;;22.40;87.00;;;;;;10365244;28;20416;-66
2023/08/24 02:28:12;;;;;;;3.80;2.60;;;22.50;87.20;;;;;;10367240;28;20412;-64
2023/08/24 02:33:12;;;;;;;3.57;2.70;;;22.50;87.20;;;;;;10361869;28;20781;-66
2023/08/24 02:38:13;;;;;;;3.47;2.60;;;22.50;87.20;;;;;;10360526;28;20449;-66
2023/08/24 02:43:13;;;;;;;3.60;2.78;;;22.50;87.30;;;;;;10361792;28;20440;-65
2023/08/24 02:48:14;;;;;;;3.80;2.50;;;22.40;87.30;;;;;;10364507;28;20411;-65
2023/08/24 02:53:15;;;;;;;3.40;2.80;;;22.40;87.30;;;;;;10359915;28;21003;-66
2023/08/24 02:58:15;;;;;;;3.93;2.80;;;22.40;87.30;;;;;;10358861;28;20392;-65
2023/08/24 03:03:16;;;;;;;3.43;2.60;;;22.40;87.40;;;;;;10363447;28;20408;-64
2023/08/24 03:08:17;;;;;;;3.05;2.60;;;22.30;87.30;;;;;;10360845;28;20428;-65
2023/08/24 03:13:18;;;;;;;3.67;2.60;;;22.30;87.30;;;;;;10360995;28;20507;-65
2023/08/24 03:18:19;;;;;;;3.60;2.63;;;22.30;87.30;;;;;;10360419;28;20412;-66
2023/08/24 03:23:19;;;;;;;3.78;2.90;;;22.30;87.40;;;;;;10344730;28;20413;-65
2023/08/24 03:28:20;;;;;;;4.78;3.20;;;22.30;87.50;;;;;;10362086;28;20404;-65
2023/08/24 03:33:21;;;;;;;4.43;3.00;;;22.20;87.50;;;;;;10360331;28;20796;-65
2023/08/24 03:38:22;;;;;;;4.72;2.95;;;22.20;87.60;;;;;;10358481;28;20764;-65
2023/08/24 03:43:23;;;;;;;4.55;2.97;;;22.30;87.50;;;;;;10357551;28;20401;-65
2023/08/24 03:48:23;;;;;;;3.70;2.90;;;22.20;87.60;;;;;;10357420;28;20423;-64
2023/08/24 03:53:24;;;;;;;4.67;2.90;;;22.20;87.40;;;;;;10357753;28;20421;-64
2023/08/24 03:58:25;;;;;;;5.67;3.13;;;22.20;87.50;;;;;;10358943;28;20393;-65
2023/08/24 04:03:25;;;;;;;3.47;2.80;;;22.10;87.50;;;;;;10359325;28;21062;-66
2023/08/24 04:08:26;;;;;;;5.00;3.10;;;22.10;87.60;;;;;;10357329;28;20405;-64
2023/08/24 04:13:27;;;;;;;4.00;3.00;;;22.10;87.60;;;;;;10352844;28;20758;-65
2023/08/24 04:18:27;;;;;;;4.50;3.10;;;22.00;87.60;;;;;;10339090;28;20904;-65
2023/08/24 04:23:28;;;;;;;4.65;3.03;;;22.00;87.60;;;;;;10356653;28;20458;-64
2023/08/24 04:28:28;;;;;;;5.90;3.30;;;22.00;87.70;;;;;;10354783;28;20801;-66
2023/08/24 04:33:29;;;;;;;4.10;3.10;;;22.00;87.70;;;;;;10355163;28;20906;-66
2023/08/24 04:38:30;;;;;;;3.67;3.00;;;22.00;87.70;;;;;;10353985;28;20400;-65
2023/08/24 04:43:30;;;;;;;4.57;3.40;;;22.00;87.60;;;;;;10354150;28;20408;-65
2023/08/24 04:48:32;;;;;;;4.07;2.90;;;22.00;87.70;;;;;;10357169;28;20447;-63
2023/08/24 04:53:33;;;;;;;4.22;3.20;;;21.90;87.50;;;;;;10358670;28;20478;-66
2023/08/24 04:58:34;;;;;;;4.30;3.00;;;21.90;87.60;;;;;;10356718;28;20915;-66
2023/08/24 05:03:35;;;;;;;3.92;2.97;;;21.90;87.60;;;;;;10357605;28;20426;-63
2023/08/24 05:08:35;;;;;;;4.72;3.38;;;21.90;87.60;;;;;;10356824;28;20781;-65
2023/08/24 05:13:36;;;;;;;4.63;3.20;;;21.90;87.80;;;;;;10358912;28;20475;-65
2023/08/24 05:18:36;;;;;;;4.30;3.27;;;21.80;87.70;;;;;;10357156;28;20404;-65
2023/08/24 05:23:37;;;;;;;4.80;3.40;;;21.80;87.80;;;;;;10346650;28;20987;-66
2023/08/24 05:28:38;;;;;;;4.47;3.30;;;21.90;87.90;;;;;;10350319;28;20768;-66
2023/08/24 05:33:38;;;;;;;4.03;3.30;;;21.80;87.90;;;;;;10366213;28;20502;-64
2023/08/24 05:38:44;;;;;;;3.77;3.13;;;21.80;88.00;;;;;;10364737;28;20947;-64
2023/08/24 05:43:45;;;;;;;4.93;3.33;;;21.80;88.00;;;;;;10366073;28;20931;-65
2023/08/24 05:48:45;;;;;;;4.50;3.40;;;21.80;88.20;;;;;;10360616;28;20412;-63
2023/08/24 05:53:46;;;;;;;4.33;3.37;;;21.80;88.20;;;;;;10342205;28;20462;-65
2023/08/24 05:58:47;;;;;;;3.97;3.40;;;21.80;88.30;;;;;;10360488;28;20748;-66
2023/08/24 06:03:48;;;;;;;5.67;3.70;;;21.80;88.30;;;;;;10347814;28;20504;-65
2023/08/24 06:08:49;;;;;;;4.13;3.50;;;21.80;88.30;;;;;;10358241;28;20998;-66
2023/08/24 06:13:52;;;;;;;4.50;3.07;;;21.80;88.30;;;;;;10346644;28;20471;-66
2023/08/24 06:18:52;;;;;;;4.88;3.67;;;21.80;88.40;;;;;;10348586;28;20909;-64
2023/08/24 06:23:53;;;;;;;4.05;3.40;;;21.70;88.40;;;;;;10362177;28;20416;-65
2023/08/24 06:28:55;;;;;;;4.47;3.47;;;21.70;88.40;;;;;;10363467;28;20435;-66
2023/08/24 06:33:56;;;;;;;5.00;3.50;;;21.80;88.40;;;;;;10361950;28;20405;-67
2023/08/24 06:38:58;;;;;;;5.60;3.83;;;21.70;88.40;;;;;;10364649;28;20768;-66
2023/08/24 06:43:59;;;;;;;4.95;3.72;;;21.80;88.40;;;;;;10367883;28;20404;-68
2023/08/24 06:48:59;;;;;;;4.82;3.70;;;21.80;88.30;;;;;;10368972;28;20928;-67
2023/08/24 06:54:00;;;;;;;4.30;3.47;;;21.70;88.40;;;;;;10373066;28;20455;-65
2023/08/24 06:59:01;;;;;;;4.78;3.42;;;21.80;88.30;;;;;;10371334;28;20396;-66
2023/08/24 07:04:02;;;;;;;4.28;3.70;;;21.80;88.30;;;;;;10377344;28;20427;-64
2023/08/24 07:09:06;;;;;;;4.75;3.90;;;21.80;88.40;;;;;;10361067;28;20399;-64
2023/08/24 07:14:07;;;;;;;4.43;3.90;;;21.80;88.40;;;;;;10370773;28;20409;-66
2023/08/24 07:19:08;;;;;;;4.00;3.60;;;21.80;88.60;;;;;;10362890;28;20401;-65
2023/08/24 07:24:09;;;;;;;4.20;3.80;;;21.80;88.60;;;;;;10350240;28;20519;-66
2023/08/24 07:29:09;;;;;;;4.10;3.70;;;21.90;88.60;;;;;;10367051;28;20813;-66
2023/08/24 07:34:10;;;;;;;4.83;3.90;;;21.90;88.60;;;;;;10367980;28;20779;-65
2023/08/24 07:39:11;;;;;;;5.07;4.03;;;21.90;88.60;;;;;;10370293;28;20397;-66
2023/08/24 07:44:12;;;;;;;4.80;4.10;;;21.90;88.70;;;;;;10365176;28;20470;-65
2023/08/24 07:49:13;;;;;;;4.90;4.40;;;22.00;88.70;;;;;;10361300;28;20811;-66
2023/08/24 07:54:14;;;;;;;4.53;4.13;;;22.00;88.90;;;;;;10362078;28;20413;-66
2023/08/24 07:59:15;;;;;;;4.43;4.00;;;22.10;88.70;;;;;;10361821;28;20401;-66
2023/08/24 08:04:15;;;;;;;5.00;4.50;;;22.10;88.70;;;;;;10365978;28;20756;-64
2023/08/24 08:09:16;;;;;;;5.40;4.57;;;22.10;88.80;;;;;;10361140;28;20412;-66
2023/08/24 08:14:17;;;;;;;5.53;4.70;;;22.10;88.90;;;;;;10364193;28;20455;-65
2023/08/24 08:19:19;;;;;;;5.20;4.70;;;22.10;89.00;;;;;;10361066;28;20490;-67
2023/08/24 08:24:20;;;;;;;5.68;4.70;;;22.20;89.00;;;;;;10360278;28;20413;-66
2023/08/24 08:29:20;;;;;;;6.30;4.88;;;22.20;89.10;;;;;;10363439;28;20435;-66
2023/08/24 08:34:21;;;;;;;5.37;4.87;;;22.20;89.10;;;;;;10364164;28;20416;-66
2023/08/24 08:39:21;;;;;;;6.53;5.20;;;22.30;89.20;;;;;;10362249;28;20404;-66
2023/08/24 08:44:23;;;;;;;6.00;5.40;;;22.30;89.20;;;;;;10357650;28;20455;-65
2023/08/24 08:49:24;;;;;;;5.67;5.00;;;22.40;89.20;;;;;;10353545;28;20413;-65
2023/08/24 08:54:25;;;;;;;5.60;5.05;;;22.50;89.20;;;;;;10359353;28;20415;-66
2023/08/24 08:59:30;;;;;;;6.00;5.00;;;22.50;89.10;;;;;;10365514;28;20456;-65
2023/08/24 09:04:36;;;;;;;6.50;5.40;;;22.60;89.10;;;;;;10359529;28;20452;-65
2023/08/24 09:09:38;;;;;;;5.75;5.20;;;22.70;89.20;;;;;;10363162;28;20419;-65
2023/08/24 09:14:41;;;;;;;5.90;5.30;;;22.70;89.10;;;;;;10361625;28;20421;-66
2023/08/24 09:19:41;;;;;;;6.18;5.43;;;22.80;89.20;;;;;;10361642;28;20916;-66
2023/08/24 09:24:43;;;;;;;6.67;5.80;;;22.80;89.20;;;;;;10362306;28;20547;-65
2023/08/24 09:29:48;;;;;;;6.20;5.50;;;22.80;89.20;;;;;;10359585;28;20408;-64
2023/08/24 09:34:50;;;;;;;6.43;5.82;;;22.80;89.20;;;;;;10365404;28;20404;-66
2023/08/24 09:40:04;;;;;;;7.65;5.93;;;22.80;89.40;;;;;;10360908;28;20400;-65
2023/08/24 09:45:06;;;;;;;6.50;5.90;;;22.90;89.40;;;;;;10345551;28;20396;-66
2023/08/24 09:50:08;;;;;;;6.75;6.05;;;22.80;89.50;;;;;;10363479;28;20431;-66
2023/08/24 09:55:09;;;;;;;7.47;6.15;;;22.80;89.60;;;;;;10357643;28;20492;-66
2023/08/24 10:00:11;;;;;;;7.73;6.20;;;22.80;89.70;;;;;;10361473;28;20904;-66
2023/08/24 10:05:17;;;;;;;7.00;6.30;;;22.80;89.80;;;;;;10346192;28;20503;-65
2023/08/24 10:10:21;;;;;;;7.10;6.40;;;22.80;89.90;;;;;;10358683;28;20413;-65
2023/08/24 10:15:23;;;;;;;7.70;6.37;;;22.80;90.00;;;;;;10367243;28;20485;-65
2023/08/24 10:20:27;;;;;;;7.30;6.32;;;22.80;90.00;;;;;;10351034;28;20418;-65
2023/08/24 10:25:28;;;;;;;7.40;6.60;;;22.90;90.10;;;;;;10358420;28;20506;-66
2023/08/24 10:30:30;;;;;;;7.35;6.55;;;22.90;90.10;;;;;;10369405;28;20404;-66
2023/08/24 10:35:32;;;;;;;7.13;6.43;;;22.80;90.10;;;;;;10349980;28;20476;-66
2023/08/24 10:40:34;;;;;;;8.57;6.15;;;22.80;90.10;;;;;;10373354;28;20414;-64
2023/08/24 10:45:54;;;;;;;7.77;6.67;;;22.90;90.20;;;;;;10367530;28;20400;-65
2023/08/24 10:51:13;;;;;;;8.30;7.07;;;22.90;90.20;;;;;;10352861;28;20417;-66
2023/08/24 10:56:16;;;;;;;8.50;7.20;;;22.90;90.30;;;;;;10370117;28;20904;-67
2023/08/24 11:01:18;;;;;;;8.63;6.90;;;22.90;90.30;;;;;;10351581;28;20503;-66
2023/08/24 11:06:24;;;;;;;8.35;6.95;;;22.90;90.30;;;;;;10366628;28;20535;-67
2023/08/24 11:11:28;;;;;;;7.70;6.90;;;23.00;90.40;;;;;;10363652;28;20404;-66
2023/08/24 11:16:40;;;;;;;8.33;7.53;;;23.00;90.50;;;;;;10368855;28;20395;-66
2023/08/24 11:21:42;;;;;;;8.63;7.18;;;23.00;90.50;;;;;;10365796;28;21027;-66
2023/08/24 11:26:44;;;;;;;8.13;7.37;;;23.10;90.50;;;;;;10362215;28;20398;-66
2023/08/24 11:31:46;;;;;;;9.07;7.80;;;23.10;90.50;;;;;;10330285;28;20932;-66
2023/08/24 11:36:48;;;;;;;9.18;8.25;;;23.10;90.60;;;;;;10364168;28;20400;-66
2023/08/24 11:42:03;;;;;;;8.68;7.88;;;23.10;90.60;;;;;;10365268;28;20976;-66
2023/08/24 11:47:04;;;;;;;9.00;8.15;;;23.20;90.60;;;;;;10359880;28;20402;-66
2023/08/24 11:52:05;;;;;;;9.10;8.25;;;23.20;90.70;;;;;;10361874;28;20422;-65
2023/08/24 11:57:08;;;;;;;8.80;7.90;;;23.20;90.70;;;;;;10364303;28;20482;-66
2023/08/24 12:02:10;;;;;;;10.43;8.90;;;23.20;90.70;;;;;;10362605;28;20495;-65
2023/08/24 12:07:12;;;;;;;9.52;8.43;;;23.20;90.80;;;;;;10347570;28;20532;-66
2023/08/24 12:12:14;;;;;;;8.87;7.90;;;23.20;90.80;;;;;;10363961;28;20409;-65
2023/08/24 12:17:16;;;;;;;9.20;8.30;;;23.30;90.80;;;;;;10362577;28;20393;-66
2023/08/24 12:22:17;;;;;;;10.07;8.38;;;23.30;90.80;;;;;;10360960;28;20423;-66
2023/08/24 12:27:19;;;;;;;9.23;8.27;;;23.30;90.80;;;;;;10367710;28;20397;-64
2023/08/24 12:32:23;;;;;;;9.13;8.23;;;23.30;90.80;;;;;;10359012;28;20417;-65
2023/08/24 12:37:23;;;;;;;10.13;8.30;;;23.40;90.90;;;;;;10365428;28;20982;-66
2023/08/24 12:42:24;;;;;;;9.57;8.57;;;23.40;90.90;;;;;;10360972;28;20533;-66
2023/08/24 12:47:25;;;;;;;9.57;8.47;;;23.40;90.90;;;;;;10354547;28;20401;-66
2023/08/24 12:52:26;;;;;;;9.98;8.32;;;23.40;90.90;;;;;;10349703;28;20499;-66
2023/08/24 12:57:27;;;;;;;10.80;8.70;;;23.50;90.90;;;;;;10345666;28;20858;-66
2023/08/24 13:02:27;;;;;;;9.23;8.23;;;23.60;91.00;;;;;;10362839;28;20900;-66
2023/08/24 13:07:28;;;;;;;9.50;8.53;;;23.60;90.80;;;;;;10363484;28;20399;-65
2023/08/24 13:12:29;;;;;;;9.97;8.97;;;23.70;90.90;;;;;;10359498;28;20416;-66
2023/08/24 13:17:30;;;;;;;11.17;8.60;;;23.70;90.90;;;;;;10361069;28;20894;-66
2023/08/24 13:22:31;;;;;;;9.98;8.38;;;23.70;90.90;;;;;;10362816;28;20407;-66
2023/08/24 13:27:31;;;;;;;9.35;8.30;;;23.70;90.90;;;;;;10361052;28;20956;-65
2023/08/24 13:32:32;;;;;;;9.60;8.27;;;23.70;90.90;;;;;;10355582;28;20412;-66
2023/08/24 13:37:33;;;;;;;9.30;7.87;;;23.80;90.90;;;;;;10346073;28;20998;-66
2023/08/24 13:42:40;;;;;;;8.85;7.65;;;23.70;91.00;;;;;;10361176;28;20407;-67
2023/08/24 13:47:41;;;;;;;10.88;7.85;;;23.80;91.10;;;;;;10364810;28;20776;-66
2023/08/24 13:52:41;;;;;;;8.70;7.80;;;23.80;91.10;;;;;;10364758;28;20495;-66
2023/08/24 13:57:42;;;;;;;9.10;7.70;;;23.80;91.10;;;;;;10363773;28;20404;-66
2023/08/24 14:02:44;;;;;;;8.83;7.60;;;23.70;91.30;;;;;;10364066;28;20397;-65
2023/08/24 14:07:45;;;;;;;8.80;7.33;;;23.70;91.30;;;;;;10366504;28;20943;-66
2023/08/24 14:12:46;;;;;;;8.30;7.40;;;23.60;91.40;;;;;;10363766;28;20420;-66
2023/08/24 14:17:49;;;;;;;8.18;7.38;;;23.60;91.40;;;;;;10350156;28;20817;-66
2023/08/24 14:22:49;;;;;;;8.10;7.30;;;23.60;91.50;;;;;;10362507;28;20409;-66
2023/08/24 14:27:50;;;;;;;8.73;7.82;;;23.60;91.50;;;;;;10363807;28;20415;-65
2023/08/24 14:32:51;;;;;;;8.33;7.53;;;23.60;91.60;;;;;;10359894;28;20416;-65
2023/08/24 14:37:51;;;;;;;8.50;7.70;;;23.50;91.60;;;;;;10354327;28;20628;-67
2023/08/24 14:42:53;;;;;;;8.47;7.63;;;23.50;91.70;;;;;;10365186;28;20415;-66
2023/08/24 14:47:53;;;;;;;8.70;7.60;;;23.50;91.80;;;;;;10362042;28;20423;-67
2023/08/24 14:52:54;;;;;;;8.73;7.80;;;23.50;91.80;;;;;;10289195;28;2155426;-65
2023/08/24 14:57:56;;;;;;;8.55;7.70;;;23.50;91.90;;;;;;10365532;28;20488;-66
2023/08/24 15:02:57;;;;;;;8.82;7.75;;;23.50;91.90;;;;;;10365231;28;20405;-66
2023/08/24 15:07:58;;;;;;;8.20;7.40;;;23.50;92.00;;;;;;10365685;28;20408;-64
2023/08/24 15:12:58;;;;;;;8.23;7.35;;;23.50;92.00;;;;;;10364806;28;20427;-66
2023/08/24 15:17:59;;;;;;;8.73;7.83;;;23.50;92.00;;;;;;10347396;28;20501;-66
2023/08/24 15:23:00;;;;;;;7.90;7.20;;;23.50;92.00;;;;;;10363472;28;20455;-67
2023/08/24 15:28:00;;;;;;;8.10;7.30;;;23.50;92.00;;;;;;10363708;28;20411;-66
2023/08/24 15:33:01;;;;;;;8.20;7.30;;;23.60;92.10;;;;;;10362784;28;20413;-65
2023/08/24 15:38:02;;;;;;;8.17;7.37;;;23.60;92.00;;;;;;10362307;28;20643;-66
2023/08/24 15:43:04;;;;;;;8.60;7.50;;;23.60;92.10;;;;;;10362868;28;20408;-67
2023/08/24 15:48:05;;;;;;;8.45;7.30;;;23.60;92.10;;;;;;10360792;28;20413;-65
2023/08/24 15:53:06;;;;;;;9.03;8.17;;;23.60;92.10;;;;;;10343985;28;20408;-68
2023/08/24 15:58:07;;;;;;;8.77;7.87;;;23.60;92.40;;;;;;10358152;28;20935;-67
2023/08/24 16:03:07;;;;;;;8.27;7.47;;;23.60;92.40;;;;;;10361597;28;20593;-67
2023/08/24 16:08:08;;;;;;;8.60;7.50;;;23.60;92.50;;;;;;10360976;28;20439;-66
2023/08/24 16:13:08;;;;;;;8.50;7.60;;;23.60;92.30;;;;;;10358335;28;20517;-67
2023/08/24 16:18:09;;;;;;;11.23;7.78;;;23.60;92.40;;;;;;10357206;28;20409;-67
2023/08/24 16:23:11;;;;;;;9.70;8.30;;;23.60;92.60;;;;;;10346977;28;20826;-67
2023/08/24 16:28:13;;;;;;;9.07;8.00;;;23.60;92.70;;;;;;10359970;28;20404;-67
2023/08/24 16:33:13;;;;;;;8.47;7.43;;;23.60;92.70;;;;;;10359199;28;20417;-67
2023/08/24 16:38:15;;;;;;;9.20;8.18;;;23.60;92.60;;;;;;10356460;28;20904;-66
2023/08/24 16:43:15;;;;;;;8.98;8.07;;;23.60;92.90;;;;;;10358750;28;20923;-66
2023/08/24 16:48:16;;;;;;;8.90;8.00;;;23.60;92.90;;;;;;10344678;28;20404;-66
2023/08/24 16:53:17;;;;;;;8.70;7.80;;;23.60;92.90;;;;;;10353897;28;20413;-66
2023/08/24 16:58:17;;;;;;;9.68;7.68;;;23.60;92.90;;;;;;10356899;28;20404;-67
2023/08/24 17:03:19;;;;;;;8.88;7.97;;;23.60;93.00;;;;;;10359815;28;20920;-67
2023/08/24 17:08:19;;;;;;;9.07;8.18;;;23.60;93.00;;;;;;10356357;28;20417;-65
2023/08/24 17:13:20;;;;;;;9.70;8.20;;;23.60;93.10;;;;;;10346657;28;20792;-66
2023/08/24 17:18:21;;;;;;;8.90;8.00;;;23.60;93.20;;;;;;10356853;28;20404;-67
2023/08/24 17:23:21;;;;;;;9.25;8.40;;;23.60;93.20;;;;;;10356004;28;20417;-67
2023/08/24 17:28:22;;;;;;;9.03;8.13;;;23.60;93.10;;;;;;10355634;28;20567;-67
2023/08/24 17:33:23;;;;;;;9.17;8.27;;;23.60;93.10;;;;;;10339388;28;20440;-67
2023/08/24 17:38:23;;;;;;;8.70;7.90;;;23.60;93.10;;;;;;10357117;28;20401;-67
2023/08/24 17:43:24;;;;;;;8.87;7.97;;;23.60;93.00;;;;;;10357752;28;20408;-67
2023/08/24 17:48:24;;;;;;;11.40;9.30;;;23.60;93.40;;;;;;10356592;28;20900;-65
2023/08/24 17:53:29;;;;;;;10.00;9.00;;;23.60;93.80;;;;;;10343561;28;20428;-67
2023/08/24 17:58:30;;;;;;;9.27;8.27;;;23.60;93.50;;;;;;10353429;28;20865;-67
2023/08/24 18:03:31;;;;;;;10.32;8.65;;;23.60;93.20;;;;;;10357139;28;20488;-67
2023/08/24 18:08:32;;;;;;;9.30;8.40;;;23.60;93.30;;;;;;10343574;28;20416;-68
2023/08/24 18:13:33;;;;;;;9.50;8.50;;;23.60;93.50;;;;;;10357040;28;20408;-67
2023/08/24 18:18:34;;;;;;;9.60;8.60;;;23.60;93.80;;;;;;10354264;28;20415;-68
2023/08/24 18:23:34;;;;;;;10.63;8.83;;;23.60;93.40;;;;;;10354260;28;20788;-68
2023/08/24 18:28:36;;;;;;;8.77;7.90;;;23.60;93.60;;;;;;10357786;28;20768;-67
2023/08/24 18:33:36;;;;;;;9.43;7.93;;;23.50;93.60;;;;;;10360706;28;20433;-68
2023/08/24 18:38:37;;;;;;;9.60;8.30;;;23.50;93.50;;;;;;10349095;28;20418;-67
2023/08/24 18:43:38;;;;;;;9.43;8.33;;;23.50;93.50;;;;;;10366624;28;20417;-68
2023/08/24 18:48:38;;;;;;;8.40;7.60;;;23.40;93.40;;;;;;10350092;28;20486;-66
2023/08/24 18:53:39;;;;;;;8.90;8.00;;;23.50;93.40;;;;;;10362901;28;20429;-68
2023/08/24 18:58:40;;;;;;;8.77;7.87;;;23.50;93.40;;;;;;10362600;28;20775;-65
2023/08/24 19:03:40;;;;;;;8.80;7.90;;;23.40;93.40;;;;;;10363827;28;20500;-67
2023/08/24 19:08:41;;;;;;;8.77;7.97;;;23.40;93.30;;;;;;10359369;28;20407;-66
2023/08/24 19:13:43;;;;;;;8.70;7.80;;;23.40;93.30;;;;;;10364015;28;20411;-67
2023/08/24 19:18:44;;;;;;;8.95;8.05;;;23.40;93.30;;;;;;10362857;28;20401;-67
2023/08/24 19:23:45;;;;;;;9.60;8.60;;;23.40;93.30;;;;;;10360357;28;20812;-65
2023/08/24 19:28:45;;;;;;;9.30;8.40;;;23.40;93.30;;;;;;10361536;28;20399;-66
2023/08/24 19:33:46;;;;;;;9.00;8.10;;;23.40;93.30;;;;;;10360161;28;20409;-65
2023/08/24 19:38:47;;;;;;;9.07;8.17;;;23.40;93.20;;;;;;10342813;28;20483;-67
2023/08/24 19:43:48;;;;;;;9.10;8.30;;;23.40;93.20;;;;;;10357938;28;21097;-68
2023/08/24 19:48:48;;;;;;;9.48;8.60;;;23.30;93.10;;;;;;10354152;28;20896;-65
2023/08/24 19:53:49;;;;;;;9.40;8.40;;;23.40;93.10;;;;;;10359687;28;20482;-64
2023/08/24 19:58:50;;;;;;;9.17;8.37;;;23.40;93.10;;;;;;10356078;28;20455;-66
2023/08/24 20:03:57;;;;;;;9.70;8.80;;;23.30;93.10;;;;;;10360020;28;20507;-66
2023/08/24 20:08:58;;;;;;;10.10;9.17;;;23.30;93.10;;;;;;10358026;28;20416;-66
2023/08/24 20:13:59;;;;;;;10.07;9.13;;;23.30;93.10;;;;;;10339257;28;20404;-66
2023/08/24 20:19:00;;;;;;;9.95;8.95;;;23.30;93.00;;;;;;10355305;28;20397;-69
2023/08/24 20:24:01;;;;;;;10.02;9.07;;;23.30;93.60;;;;;;10355279;28;20415;-66
2023/08/24 20:29:02;;;;;;;10.70;9.60;;;23.20;93.40;;;;;;10349436;28;20769;-64
2023/08/24 20:34:02;;;;;;;10.43;9.32;;;23.30;93.40;;;;;;10354923;28;20507;-65
2023/08/24 20:39:09;;;;;;;10.57;9.47;;;23.20;93.30;;;;;;10356877;28;21131;-66
2023/08/24 20:44:09;;;;;;;10.32;9.32;;;23.20;93.30;;;;;;10355180;28;20483;-65
2023/08/24 20:49:10;;;;;;;11.47;10.30;;;23.20;93.20;;;;;;10339437;28;20799;-66
2023/08/24 20:54:11;;;;;;;11.00;9.77;;;23.20;93.20;;;;;;10357337;28;20413;-66
2023/08/24 20:59:11;;;;;;;10.60;9.50;;;23.20;93.20;;;;;;10356700;28;20393;-64
2023/08/24 21:04:33;;;;;;;10.25;9.25;;;23.20;93.10;;;;;;10356942;28;20463;-66
2023/08/24 21:09:34;;;;;;;10.88;9.80;;;23.20;93.10;;;;;;10351950;28;20784;-64
2023/08/24 21:14:35;;;;;;;10.83;9.70;;;23.20;93.10;;;;;;10339061;28;20420;-65
2023/08/24 21:19:36;;;;;;;11.10;9.90;;;23.20;93.10;;;;;;10356791;28;21225;-66
2023/08/24 21:24:37;;;;;;;11.30;10.10;;;23.20;93.10;;;;;;10355546;28;20434;-66
2023/08/24 21:29:39;;;;;;;11.37;10.17;;;23.20;93.10;;;;;;10357951;28;20400;-65
2023/08/24 21:34:40;;;;;;;10.93;9.82;;;23.20;93.10;;;;;;10362840;28;20848;-66
2023/08/24 21:39:41;;;;;;;11.33;10.23;;;23.20;93.10;;;;;;10361384;28;20498;-65
2023/08/24 21:44:43;;;;;;;11.37;10.23;;;23.10;93.10;;;;;;10352701;28;20562;-64
2023/08/24 21:49:44;;;;;;;10.70;9.70;;;23.10;93.10;;;;;;10355988;28;20478;-64
2023/08/24 21:54:45;;;;;;;10.90;9.80;;;23.10;93.10;;;;;;10353899;28;20467;-65
2023/08/24 21:59:46;;;;;;;11.57;10.38;;;23.10;93.10;;;;;;10355936;28;20736;-65
2023/08/24 22:04:47;;;;;;;11.27;10.27;;;23.10;93.10;;;;;;10361373;28;20499;-64
2023/08/24 22:09:47;;;;;;;11.82;10.73;;;23.10;93.10;;;;;;10366026;28;20495;-65
2023/08/24 22:14:48;;;;;;;11.80;10.60;;;23.10;93.10;;;;;;10365950;28;20941;-63
2023/08/24 22:19:49;;;;;;;12.07;10.88;;;23.10;93.10;;;;;;10365071;28;20400;-66
2023/08/24 22:24:49;;;;;;;11.98;10.77;;;23.10;93.10;;;;;;10363995;28;20405;-63
2023/08/24 22:29:50;;;;;;;11.85;10.73;;;23.00;93.10;;;;;;10363161;28;20455;-65
2023/08/24 22:34:51;;;;;;;12.10;10.90;;;23.10;93.10;;;;;;10365181;28;20424;-64
2023/08/24 22:39:52;;;;;;;12.37;11.17;;;23.00;93.10;;;;;;10360861;28;20407;-65
2023/08/24 22:44:53;;;;;;;11.90;10.70;;;23.00;93.10;;;;;;10364911;28;20405;-65
2023/08/24 22:49:57;;;;;;;12.10;10.90;;;23.00;93.10;;;;;;10362890;28;20413;-65
2023/08/24 22:54:57;;;;;;;12.27;11.10;;;23.10;93.10;;;;;;10363990;28;20455;-66
2023/08/24 22:59:59;;;;;;;11.80;10.70;;;23.00;93.10;;;;;;10359663;28;20488;-65
2023/08/24 23:05:02;;;;;;;13.02;11.73;;;23.00;93.10;;;;;;10362029;28;20401;-66
2023/08/24 23:10:05;;;;;;;12.52;11.32;;;23.00;93.10;;;;;;10366303;28;20673;-65
2023/08/24 23:15:10;;;;;;;12.68;11.48;;;23.00;93.10;;;;;;10361786;28;20407;-65
2023/08/24 23:20:11;;;;;;;13.00;11.75;;;23.00;93.10;;;;;;10364385;28;20512;-63
2023/08/24 23:25:12;;;;;;;13.50;12.20;;;23.00;93.10;;;;;;10362146;28;20468;-66
2023/08/24 23:30:13;;;;;;;12.65;11.45;;;23.00;93.20;;;;;;10357680;28;20401;-65
2023/08/24 23:35:13;;;;;;;12.70;11.50;;;22.90;93.20;;;;;;10360863;28;20903;-65
2023/08/24 23:40:14;;;;;;;13.13;11.83;;;22.90;93.20;;;;;;10361802;28;20408;-65
2023/08/24 23:45:16;;;;;;;12.83;11.53;;;22.90;93.20;;;;;;10360925;28;20733;-63
2023/08/24 23:50:17;;;;;;;13.43;12.00;;;22.90;93.20;;;;;;10357572;28;20413;-65
2023/08/24 23:55:17;;;;;;;13.40;12.10;;;22.90;93.30;;;;;;10359900;28;20409;-66
